createdAt,value
2022-12-22T00:00:39.921Z,20.30
2022-12-22T00:03:31.689Z,19.90
2022-12-22T00:06:17.373Z,19.03
2022-12-22T00:09:05.762Z,18.43
2022-12-22T00:11:52.907Z,18.97
2022-12-22T00:14:38.353Z,18.80
2022-12-22T00:17:37.312Z,19.50
2022-12-22T00:20:30.731Z,19.57
2022-12-22T00:23:16.272Z,18.83
2022-12-22T00:26:02.101Z,19.13
2022-12-22T00:28:48.793Z,19.50
2022-12-22T00:31:35.114Z,18.20
2022-12-22T00:34:20.707Z,18.40
2022-12-22T00:37:05.935Z,18.27
2022-12-22T00:39:51.482Z,18.83
2022-12-22T00:42:36.636Z,18.77
2022-12-22T00:45:24.655Z,18.43
2022-12-22T00:48:10.429Z,17.87
2022-12-22T00:50:55.575Z,18.20
2022-12-22T00:53:41.243Z,18.47
2022-12-22T00:56:27.447Z,17.93
2022-12-22T00:59:14.927Z,18.77
2022-12-22T01:02:02.104Z,18.30
2022-12-22T01:04:47.572Z,18.53
2022-12-22T01:07:34.772Z,18.30
2022-12-22T01:10:20.241Z,18.00
2022-12-22T01:13:05.691Z,17.00
2022-12-22T01:15:51.174Z,17.80
2022-12-22T01:18:37.942Z,16.33
2022-12-22T01:21:23.731Z,16.50
2022-12-22T01:24:09.252Z,16.67
2022-12-22T01:26:54.551Z,17.37
2022-12-22T01:29:40.118Z,16.77
2022-12-22T01:32:30.333Z,15.17
2022-12-22T01:35:17.262Z,16.87
2022-12-22T01:38:02.688Z,16.33
2022-12-22T01:40:48.545Z,16.33
2022-12-22T01:43:39.195Z,16.47
2022-12-22T01:46:42.270Z,16.47
2022-12-22T01:49:30.094Z,17.00
2022-12-22T01:52:17.080Z,16.50
2022-12-22T01:55:02.920Z,14.97
2022-12-22T01:57:50.136Z,14.83
2022-12-22T02:00:36.098Z,16.27
2022-12-22T02:03:21.756Z,15.30
2022-12-22T02:06:33.190Z,15.83
2022-12-22T02:09:35.271Z,15.20
2022-12-22T02:12:28.992Z,15.73
2022-12-22T02:15:23.154Z,15.10
2022-12-22T02:18:19.425Z,15.27
2022-12-22T02:21:09.074Z,14.63
2022-12-22T02:24:06.780Z,15.33
2022-12-22T02:26:55.843Z,16.20
2022-12-22T02:29:46.239Z,15.03
2022-12-22T02:32:31.997Z,15.67
2022-12-22T02:35:17.472Z,15.40
2022-12-22T02:38:11.493Z,16.03
2022-12-22T02:41:07.461Z,15.20
2022-12-22T02:44:10.991Z,15.60
2022-12-22T02:47:04.974Z,16.20
2022-12-22T02:49:58.961Z,15.83
2022-12-22T02:52:50.420Z,16.37
2022-12-22T02:55:36.190Z,16.53
2022-12-22T02:58:21.649Z,16.40
2022-12-22T03:01:09.148Z,16.47
2022-12-22T03:03:54.782Z,16.50
2022-12-22T03:06:40.515Z,15.83
2022-12-22T03:09:25.973Z,15.53
2022-12-22T03:12:11.243Z,15.43
2022-12-22T03:14:56.747Z,16.03
2022-12-22T03:17:43.766Z,15.30
2022-12-22T03:20:29.444Z,15.30
2022-12-22T03:23:15.189Z,14.83
2022-12-22T03:25:52.985Z,14.37
2022-12-22T03:28:21.906Z,14.57
2022-12-22T03:30:55.774Z,14.43
2022-12-22T03:33:25.431Z,14.60
2022-12-22T03:35:53.419Z,13.53
2022-12-22T03:38:21.304Z,13.80
2022-12-22T03:40:49.183Z,13.13
2022-12-22T03:43:35.525Z,13.30
2022-12-22T03:46:23.709Z,12.47
2022-12-22T03:49:10.981Z,13.17
2022-12-22T03:51:41.460Z,12.30
2022-12-22T03:54:10.427Z,12.07
2022-12-22T03:56:39.059Z,13.13
2022-12-22T03:59:07.211Z,11.50
2022-12-22T04:01:38.490Z,12.23
2022-12-22T04:04:07.834Z,10.90
2022-12-22T04:06:35.787Z,11.27
2022-12-22T04:09:03.746Z,10.23
2022-12-22T04:11:57.486Z,9.60
2022-12-22T04:14:33.126Z,9.30
2022-12-22T04:17:02.142Z,9.73
2022-12-22T04:19:31.328Z,8.87
2022-12-22T04:21:59.290Z,9.07
2022-12-22T04:24:27.219Z,8.77
2022-12-22T04:26:55.205Z,9.43
2022-12-22T04:29:23.004Z,9.27
2022-12-22T04:31:50.953Z,9.10
2022-12-22T04:34:18.877Z,8.97
2022-12-22T04:36:48.227Z,8.90
2022-12-22T04:39:16.078Z,8.40
2022-12-22T04:41:44.632Z,8.53
2022-12-22T04:44:12.545Z,8.80
2022-12-22T04:46:40.395Z,8.80
2022-12-22T04:49:08.289Z,9.83
2022-12-22T04:51:36.084Z,8.90
2022-12-22T04:54:05.371Z,9.00
2022-12-22T04:56:33.234Z,9.47
2022-12-22T04:59:01.080Z,9.60
2022-12-22T05:01:29.079Z,9.90
2022-12-22T05:03:57.136Z,9.70
2022-12-22T05:06:24.951Z,10.37
2022-12-22T05:08:52.809Z,10.00
2022-12-22T05:11:21.991Z,11.10
2022-12-22T05:13:49.876Z,10.40
2022-12-22T05:16:18.292Z,10.37
2022-12-22T05:18:47.113Z,10.93
2022-12-22T05:21:17.537Z,10.80
2022-12-22T05:23:46.205Z,11.00
2022-12-22T05:26:15.515Z,10.57
2022-12-22T05:28:46.165Z,10.37
2022-12-22T05:31:17.138Z,10.83
2022-12-22T05:33:45.200Z,10.63
2022-12-22T05:36:14.300Z,10.47
2022-12-22T05:38:42.185Z,11.00
2022-12-22T05:41:10.030Z,10.70
2022-12-22T05:43:38.352Z,10.27
2022-12-22T05:46:09.625Z,11.40
2022-12-22T05:48:39.575Z,11.43
2022-12-22T05:51:10.092Z,11.13
2022-12-22T05:53:38.888Z,12.30
2022-12-22T05:56:07.844Z,12.17
2022-12-22T05:58:36.370Z,12.33
2022-12-22T06:01:04.587Z,12.63
2022-12-22T06:03:34.081Z,12.90
2022-12-22T06:06:02.005Z,11.77
2022-12-22T06:08:29.918Z,13.10
2022-12-22T06:10:59.320Z,13.57
2022-12-22T06:13:27.716Z,12.57
2022-12-22T06:15:55.632Z,13.80
2022-12-22T06:18:23.489Z,12.97
2022-12-22T06:20:54.293Z,13.20
2022-12-22T06:23:22.640Z,12.93
2022-12-22T06:25:56.227Z,13.43
2022-12-22T06:28:24.099Z,12.87
2022-12-22T06:30:52.174Z,14.13
2022-12-22T06:33:20.210Z,13.57
2022-12-22T06:35:52.371Z,13.77
2022-12-22T06:38:27.524Z,13.80
2022-12-22T06:40:55.387Z,13.73
2022-12-22T06:43:22.231Z,13.97
2022-12-22T06:45:50.107Z,13.93
2022-12-22T06:48:17.981Z,14.13
2022-12-22T06:50:46.000Z,13.93
2022-12-22T06:53:14.069Z,14.20
2022-12-22T06:55:43.285Z,14.47
2022-12-22T06:58:11.101Z,14.60
2022-12-22T07:00:39.134Z,14.40
2022-12-22T07:03:07.141Z,15.03
2022-12-22T07:05:35.244Z,14.87
2022-12-22T07:08:08.379Z,14.97
2022-12-22T07:10:54.641Z,15.73
2022-12-22T07:13:24.205Z,15.03
2022-12-22T07:15:59.945Z,14.50
2022-12-22T07:18:30.582Z,15.00
2022-12-22T07:20:58.478Z,14.53
2022-12-22T07:23:26.814Z,14.83
2022-12-22T07:25:54.967Z,14.67
2022-12-22T07:28:24.672Z,14.97
2022-12-22T07:30:53.404Z,14.03
2022-12-22T07:33:21.787Z,14.70
2022-12-22T07:35:49.569Z,14.60
2022-12-22T07:38:17.619Z,15.33
2022-12-22T07:40:51.028Z,15.90
2022-12-22T07:43:18.819Z,15.33
2022-12-22T07:45:48.014Z,15.20
2022-12-22T07:48:33.641Z,14.73
2022-12-22T07:51:04.645Z,14.87
2022-12-22T07:53:32.732Z,14.83
2022-12-22T07:56:04.053Z,15.77
2022-12-22T07:58:32.036Z,14.93
2022-12-22T08:01:02.484Z,15.23
2022-12-22T08:03:30.388Z,15.50
2022-12-22T08:05:58.171Z,15.37
2022-12-22T08:08:26.064Z,16.30
2022-12-22T08:10:53.863Z,15.03
2022-12-22T08:13:21.865Z,15.40
2022-12-22T08:15:49.811Z,16.07
2022-12-22T08:18:19.106Z,16.43
2022-12-22T08:20:50.674Z,17.90
2022-12-22T08:23:18.658Z,16.03
2022-12-22T08:25:49.604Z,15.93
2022-12-22T08:28:18.246Z,15.10
2022-12-22T08:30:46.872Z,15.17
2022-12-22T08:33:14.936Z,14.80
2022-12-22T08:35:44.798Z,14.77
2022-12-22T08:38:13.849Z,14.17
2022-12-22T08:40:44.249Z,14.77
2022-12-22T08:43:13.322Z,13.77
2022-12-22T08:45:43.357Z,13.13
2022-12-22T08:48:11.684Z,13.33
2022-12-22T08:50:39.761Z,12.93
2022-12-22T08:53:29.648Z,11.93
2022-12-22T08:55:58.413Z,13.67
2022-12-22T08:58:26.310Z,13.47
2022-12-22T09:00:54.206Z,11.17
2022-12-22T09:03:22.094Z,10.53
2022-12-22T09:05:50.074Z,10.10
2022-12-22T09:08:19.381Z,9.87
2022-12-22T09:10:47.220Z,9.50
2022-12-22T09:13:15.018Z,8.67
2022-12-22T09:15:42.872Z,9.37
2022-12-22T09:18:10.729Z,9.17
2022-12-22T09:20:38.702Z,9.20
2022-12-22T09:23:06.547Z,9.57
2022-12-22T09:25:36.920Z,9.30
2022-12-22T09:28:08.410Z,8.77
2022-12-22T09:30:36.342Z,8.40
2022-12-22T09:33:04.163Z,9.00
2022-12-22T09:35:32.187Z,9.30
2022-12-22T09:37:59.983Z,9.20
2022-12-22T09:40:28.170Z,10.83
2022-12-22T09:42:58.614Z,11.97
2022-12-22T09:45:26.735Z,10.17
2022-12-22T09:47:56.069Z,10.67
2022-12-22T09:50:26.616Z,11.20
2022-12-22T09:52:58.623Z,12.50
2022-12-22T09:55:40.177Z,12.10
2022-12-22T09:58:25.789Z,11.00
2022-12-22T10:01:03.613Z,10.30
2022-12-22T10:03:38.362Z,10.37
2022-12-22T10:06:12.077Z,10.63
2022-12-22T10:08:41.626Z,10.03
2022-12-22T10:11:14.806Z,11.37
2022-12-22T10:13:45.295Z,10.70
2022-12-22T10:16:21.807Z,11.30
2022-12-22T10:18:59.718Z,11.63
2022-12-22T10:21:29.943Z,11.57
2022-12-22T10:23:57.810Z,11.87
2022-12-22T10:26:29.205Z,11.77
2022-12-22T10:29:04.829Z,12.27
2022-12-22T10:31:34.266Z,12.23
2022-12-22T10:34:13.686Z,13.30
2022-12-22T10:36:47.228Z,13.80
2022-12-22T10:39:21.903Z,12.83
2022-12-22T10:41:51.660Z,13.60
2022-12-22T10:44:23.424Z,15.43
2022-12-22T10:46:52.895Z,14.87
2022-12-22T10:49:23.631Z,16.73
2022-12-22T10:51:54.762Z,13.23
2022-12-22T10:54:27.391Z,14.10
2022-12-22T10:57:01.390Z,14.70
2022-12-22T10:59:31.578Z,14.03
2022-12-22T11:02:28.433Z,14.93
2022-12-22T11:05:03.297Z,12.33
2022-12-22T11:07:34.363Z,13.50
2022-12-22T11:10:02.628Z,13.90
2022-12-22T11:12:41.460Z,14.70
2022-12-22T11:15:24.807Z,13.97
2022-12-22T11:18:01.650Z,14.23
2022-12-22T11:20:44.565Z,13.53
2022-12-22T11:23:19.004Z,14.70
2022-12-22T11:25:58.993Z,14.03
2022-12-22T11:28:38.912Z,14.53
2022-12-22T11:31:22.496Z,13.17
2022-12-22T11:34:03.118Z,14.80
2022-12-22T11:36:40.555Z,13.30
2022-12-22T11:39:14.177Z,14.80
2022-12-22T11:41:49.935Z,14.07
2022-12-22T11:44:38.087Z,14.57
2022-12-22T11:47:17.031Z,15.40
2022-12-22T11:50:58.361Z,14.30
2022-12-22T11:53:15.953Z,16.53
2022-12-22T11:55:49.612Z,17.37
2022-12-22T11:58:35.072Z,17.07
2022-12-22T12:01:25.619Z,15.40
2022-12-22T12:04:19.784Z,16.77
2022-12-22T12:07:04.539Z,16.40
2022-12-22T12:09:43.244Z,16.43
2022-12-22T12:12:17.887Z,16.90
2022-12-22T12:14:54.631Z,16.90
2022-12-22T12:17:29.636Z,16.60
2022-12-22T12:20:15.557Z,16.70
2022-12-22T12:22:56.086Z,15.93
2022-12-22T12:25:30.365Z,16.50
2022-12-22T12:28:13.071Z,13.63
2022-12-22T12:30:49.756Z,15.10
2022-12-22T12:33:22.425Z,13.23
2022-12-22T12:35:59.817Z,13.40
2022-12-22T12:41:32.739Z,12.27
2022-12-22T12:44:02.033Z,11.77
2022-12-22T12:47:05.845Z,11.47
2022-12-22T12:49:54.448Z,11.77
2022-12-22T12:52:55.935Z,11.37
2022-12-22T12:55:31.897Z,11.33
2022-12-22T12:58:01.941Z,12.70
2022-12-22T13:00:50.923Z,11.73
2022-12-22T13:06:58.691Z,12.70
2022-12-22T13:12:39.247Z,11.60
2022-12-22T13:15:32.611Z,11.57
2022-12-22T13:18:02.007Z,11.20
2022-12-22T13:20:33.363Z,10.30
2022-12-22T13:23:04.084Z,10.43
2022-12-22T13:25:42.368Z,10.57
2022-12-22T13:28:17.031Z,10.30
2022-12-22T13:30:48.718Z,12.27
2022-12-22T13:33:19.671Z,11.10
2022-12-22T13:35:53.420Z,11.53
2022-12-22T13:38:30.268Z,10.57
2022-12-22T13:40:59.568Z,10.60
2022-12-22T13:43:31.579Z,10.13
2022-12-22T13:46:03.957Z,9.93
2022-12-22T13:48:44.184Z,9.73
2022-12-22T13:51:18.808Z,9.20
2022-12-22T13:54:07.793Z,9.30
2022-12-22T13:56:40.619Z,9.30
2022-12-22T13:59:21.892Z,9.53
2022-12-22T14:01:51.137Z,9.63
2022-12-22T14:04:19.211Z,9.63
2022-12-22T14:06:47.080Z,9.27
2022-12-22T14:09:18.042Z,8.63
2022-12-22T14:11:52.606Z,8.73
2022-12-22T14:14:26.152Z,7.93
2022-12-22T14:16:57.303Z,7.57
2022-12-22T14:19:26.378Z,8.47
2022-12-22T14:22:03.053Z,7.23
2022-12-22T14:24:38.444Z,7.17
2022-12-22T14:27:08.116Z,6.77
2022-12-22T14:29:37.349Z,6.47
2022-12-22T14:32:05.845Z,6.13
2022-12-22T14:34:35.161Z,6.80
2022-12-22T14:37:03.529Z,6.00
2022-12-22T14:39:33.014Z,6.80
2022-12-22T14:42:03.597Z,8.23
2022-12-22T14:44:35.293Z,7.00
2022-12-22T14:47:14.882Z,6.23
2022-12-22T14:49:49.122Z,6.40
2022-12-22T14:52:21.685Z,6.47
2022-12-22T14:54:52.710Z,6.60
2022-12-22T14:57:29.911Z,5.87
2022-12-22T15:00:03.604Z,6.57
2022-12-22T15:02:39.500Z,6.30
2022-12-22T15:05:10.709Z,6.30
2022-12-22T15:08:07.894Z,6.97
2022-12-22T15:10:40.860Z,6.30
2022-12-22T15:13:14.123Z,6.90
2022-12-22T15:15:42.044Z,6.60
2022-12-22T15:18:15.943Z,6.20
2022-12-22T15:20:44.032Z,7.13
2022-12-22T15:23:14.686Z,7.67
2022-12-22T15:25:42.719Z,6.87
2022-12-22T15:28:10.826Z,7.10
2022-12-22T15:30:39.133Z,7.33
2022-12-22T15:33:14.458Z,6.70
2022-12-22T15:35:43.276Z,7.13
2022-12-22T15:38:14.879Z,8.57
2022-12-22T15:40:42.986Z,7.63
2022-12-22T15:43:28.805Z,7.13
2022-12-22T15:45:59.625Z,6.50
2022-12-22T15:48:31.801Z,7.00
2022-12-22T15:51:00.667Z,7.20
2022-12-22T15:53:28.593Z,7.40
2022-12-22T15:55:58.399Z,7.40
2022-12-22T15:58:28.946Z,7.33
2022-12-22T16:00:57.140Z,9.60
2022-12-22T16:03:25.240Z,9.50
2022-12-22T16:05:54.904Z,9.00
2022-12-22T16:08:29.611Z,8.97
2022-12-22T16:10:57.714Z,8.90
2022-12-22T16:13:28.890Z,10.50
2022-12-22T16:15:58.279Z,8.87
2022-12-22T16:18:26.365Z,10.67
2022-12-22T16:20:56.819Z,10.23
2022-12-22T16:23:27.585Z,11.00
2022-12-22T16:26:01.630Z,10.27
2022-12-22T16:28:30.616Z,9.90
2022-12-22T16:30:58.565Z,9.63
2022-12-22T16:33:26.508Z,10.57
2022-12-22T16:35:55.695Z,9.50
2022-12-22T16:38:23.558Z,8.80
2022-12-22T16:40:53.926Z,8.83
2022-12-22T16:46:15.834Z,8.87
2022-12-22T16:48:46.376Z,8.90
2022-12-22T16:51:19.853Z,8.97
2022-12-22T16:53:47.898Z,9.63
2022-12-22T16:56:18.465Z,9.83
2022-12-22T16:58:47.144Z,8.47
2022-12-22T17:01:31.116Z,9.73
2022-12-22T17:04:03.694Z,10.47
2022-12-22T17:06:33.303Z,9.70
2022-12-22T17:09:02.530Z,8.90
2022-12-22T17:11:32.435Z,10.23
2022-12-22T17:14:06.616Z,9.77
2022-12-22T17:16:34.531Z,10.87
2022-12-22T17:19:02.424Z,9.50
2022-12-22T17:21:31.836Z,10.90
2022-12-22T17:24:03.926Z,10.13
2022-12-22T17:26:34.651Z,10.33
2022-12-22T17:29:02.901Z,9.40
2022-12-22T17:31:30.839Z,9.00
2022-12-22T17:33:58.788Z,9.53
2022-12-22T17:36:34.080Z,9.60
2022-12-22T17:39:02.919Z,9.00
2022-12-22T17:41:31.111Z,8.60
2022-12-22T17:43:59.076Z,9.87
2022-12-22T17:46:26.896Z,8.93
2022-12-22T17:48:54.770Z,8.23
2022-12-22T17:51:25.198Z,9.27
2022-12-22T17:53:55.715Z,8.63
2022-12-22T17:56:26.740Z,9.17
2022-12-22T17:58:55.211Z,9.40
2022-12-22T18:01:25.955Z,9.23
2022-12-22T18:03:54.470Z,8.73
2022-12-22T18:06:26.400Z,9.57
2022-12-22T18:08:57.179Z,9.27
2022-12-22T18:11:25.247Z,9.23
2022-12-22T18:13:54.184Z,9.50
2022-12-22T18:16:23.040Z,9.67
2022-12-22T18:18:51.060Z,9.33
2022-12-22T18:21:21.250Z,9.07
2022-12-22T18:23:50.879Z,8.87
2022-12-22T18:26:25.951Z,9.70
2022-12-22T18:28:54.841Z,9.03
2022-12-22T18:31:24.343Z,10.03
2022-12-22T18:33:52.742Z,9.60
2022-12-22T18:36:24.419Z,9.67
2022-12-22T18:38:52.322Z,8.87
2022-12-22T18:41:24.381Z,10.23
2022-12-22T18:43:52.540Z,9.23
2022-12-22T18:46:21.371Z,9.60
2022-12-22T18:48:49.805Z,10.10
2022-12-22T18:51:21.977Z,9.50
2022-12-22T18:53:50.969Z,10.17
2022-12-22T18:56:19.235Z,9.67
2022-12-22T18:58:48.576Z,11.37
2022-12-22T19:01:22.211Z,10.10
2022-12-22T19:03:51.139Z,10.67
2022-12-22T19:06:21.409Z,11.10
2022-12-22T19:08:49.367Z,10.00
2022-12-22T19:11:19.087Z,11.63
2022-12-22T19:13:50.896Z,10.50
2022-12-22T19:16:21.253Z,10.47
2022-12-22T19:18:49.159Z,10.20
2022-12-22T19:21:18.901Z,10.60
2022-12-22T19:23:47.229Z,10.63
2022-12-22T19:26:22.247Z,10.97
2022-12-22T19:28:55.003Z,10.93
2022-12-22T19:31:25.834Z,11.07
2022-12-22T19:33:54.951Z,11.37
2022-12-22T19:36:25.472Z,10.90
2022-12-22T19:39:02.524Z,11.90
2022-12-22T19:41:39.620Z,11.80
2022-12-22T19:44:18.715Z,11.77
2022-12-22T19:46:47.493Z,11.53
2022-12-22T19:49:17.400Z,11.83
2022-12-22T19:51:45.302Z,12.50
2022-12-22T19:54:13.155Z,12.20
2022-12-22T19:56:41.992Z,12.40
2022-12-22T19:59:27.064Z,12.90
2022-12-22T20:01:58.303Z,12.20
2022-12-22T20:04:26.517Z,12.57
2022-12-22T20:06:54.527Z,13.60
2022-12-22T20:09:22.300Z,13.50
2022-12-22T20:11:50.236Z,15.00
2022-12-22T20:14:19.568Z,14.00
2022-12-22T20:16:47.490Z,13.60
2022-12-22T20:19:15.936Z,14.67
2022-12-22T20:21:44.063Z,14.67
2022-12-22T20:24:19.957Z,13.93
2022-12-22T20:26:53.797Z,12.63
2022-12-22T20:29:25.414Z,16.47
2022-12-22T20:31:53.536Z,13.70
2022-12-22T20:34:21.660Z,13.67
2022-12-22T20:36:49.574Z,12.87
2022-12-22T20:39:20.177Z,13.77
2022-12-22T20:41:52.943Z,14.13
2022-12-22T20:44:22.152Z,13.37
2022-12-22T20:46:51.630Z,13.37
2022-12-22T20:49:19.719Z,13.23
2022-12-22T20:51:47.563Z,14.17
2022-12-22T20:54:16.446Z,15.77
2022-12-22T20:56:45.578Z,14.13
2022-12-22T20:59:16.312Z,14.87
2022-12-22T21:01:44.357Z,14.23
2022-12-22T21:04:14.820Z,13.70
2022-12-22T21:06:46.945Z,15.73
2022-12-22T21:09:15.860Z,14.00
2022-12-22T21:11:43.829Z,14.23
2022-12-22T21:14:12.729Z,13.87
2022-12-22T21:16:41.431Z,13.47
2022-12-22T21:19:15.174Z,14.13
2022-12-22T21:21:44.425Z,14.67
2022-12-22T21:24:12.235Z,13.57
2022-12-22T21:26:43.706Z,13.20
2022-12-22T21:29:17.563Z,13.73
2022-12-22T21:31:45.556Z,13.30
2022-12-22T21:34:13.414Z,13.60
2022-12-22T21:36:45.242Z,13.60
2022-12-22T21:39:23.417Z,13.27
2022-12-22T21:42:04.382Z,14.23
2022-12-22T21:44:34.054Z,13.50
2022-12-22T21:47:02.605Z,13.47
2022-12-22T21:49:32.328Z,14.00
2022-12-22T21:52:01.755Z,13.87
2022-12-22T21:54:29.695Z,13.77
2022-12-22T21:56:57.551Z,14.73
2022-12-22T21:59:25.626Z,14.87
2022-12-22T22:01:53.924Z,15.40
2022-12-22T22:04:23.035Z,14.77
2022-12-22T22:06:50.985Z,15.40
2022-12-22T22:09:20.242Z,16.10
2022-12-22T22:12:05.567Z,15.10
2022-12-22T22:14:33.528Z,14.67
2022-12-22T22:17:01.322Z,14.83
2022-12-22T22:19:29.222Z,14.03
2022-12-22T22:21:57.029Z,13.93
2022-12-22T22:24:26.420Z,14.83
2022-12-22T22:26:55.776Z,14.00
2022-12-22T22:29:23.864Z,14.43
2022-12-22T22:31:51.754Z,14.53
2022-12-22T22:34:19.774Z,14.23
2022-12-22T22:36:47.554Z,14.40
2022-12-22T22:39:15.442Z,14.60
2022-12-22T22:41:44.595Z,14.97
2022-12-22T22:44:12.479Z,13.83
2022-12-22T22:46:40.589Z,13.80
2022-12-22T22:49:08.833Z,14.50
2022-12-22T22:51:36.661Z,14.60
2022-12-22T22:54:04.746Z,15.47
2022-12-22T22:56:32.558Z,14.53
2022-12-22T22:59:01.967Z,13.47
2022-12-22T23:01:30.153Z,13.60
2022-12-22T23:03:58.212Z,14.07
2022-12-22T23:06:26.251Z,14.00
2022-12-22T23:08:54.415Z,13.63
2022-12-22T23:11:22.354Z,14.10
2022-12-22T23:13:50.245Z,13.33
2022-12-22T23:16:21.367Z,14.20
2022-12-22T23:18:49.453Z,14.40
2022-12-22T23:21:17.290Z,15.57
2022-12-22T23:23:45.136Z,15.27
2022-12-22T23:26:13.087Z,15.20
2022-12-22T23:28:41.015Z,15.90
2022-12-22T23:31:11.706Z,15.30
2022-12-22T23:33:41.032Z,15.17
2022-12-22T23:36:09.500Z,15.70
2022-12-22T23:38:37.593Z,15.90
2022-12-22T23:41:07.366Z,15.90
2022-12-22T23:43:35.436Z,16.17
2022-12-22T23:46:07.267Z,15.73
2022-12-22T23:48:35.308Z,15.63
2022-12-22T23:51:04.634Z,16.00
2022-12-22T23:53:32.644Z,17.20
2022-12-22T23:56:00.534Z,16.23
2022-12-22T23:58:28.707Z,16.23
